Time;durP1;ratioP1;P1;durP2;ratioP2;P2;SDS_P1;SDS_P2;PMS_P1;PMS_P2;Temp;Humidity;BMP_temperature;BMP_pressure;BME280_temperature;BME280_humidity;BME280_pressure;Samples;Min_cycle;Max_cycle;Signal;HPM_P1;HPM_P2
2023/03/24 00:02:21;;;;;;;26.05;9.63;;;;;;;10.82;100.00;99650.94;5068850;28;20017;-48
2023/03/24 00:04:48;;;;;;;23.70;10.70;;;;;;;10.83;100.00;99641.81;5070130;28;20086;-49
2023/03/24 00:07:14;;;;;;;34.40;10.68;;;;;;;10.83;100.00;99654.44;5084500;28;20039;-50
2023/03/24 00:09:41;;;;;;;31.33;10.77;;;;;;;10.82;100.00;99647.41;5070099;28;20028;-49
2023/03/24 00:12:08;;;;;;;32.88;11.65;;;;;;;10.82;100.00;99653.63;5070045;28;20509;-47
2023/03/24 00:14:37;;;;;;;28.67;11.88;;;;;;;10.85;100.00;99638.88;5068111;28;20139;-49
2023/03/24 00:17:04;;;;;;;30.48;11.25;;;;;;;10.87;100.00;99632.25;5069670;28;20115;-47
2023/03/24 00:19:29;;;;;;;31.55;12.23;;;;;;;10.94;100.00;99643.00;5067680;28;20043;-49
2023/03/24 00:21:54;;;;;;;30.83;10.02;;;;;;;10.99;100.00;99633.25;5070573;28;20028;-48
2023/03/24 00:24:20;;;;;;;30.90;10.35;;;;;;;11.04;100.00;99618.34;5067976;28;20064;-50
2023/03/24 00:26:47;;;;;;;27.77;10.02;;;;;;;11.09;100.00;99611.25;5067814;28;20191;-48
2023/03/24 00:29:13;;;;;;;23.60;9.30;;;;;;;11.12;100.00;99600.03;5070019;28;20020;-48
2023/03/24 00:31:40;;;;;;;19.42;7.88;;;;;;;11.17;100.00;99602.91;5069820;28;20028;-48
2023/03/24 00:34:07;;;;;;;27.13;8.77;;;;;;;11.25;100.00;99584.88;5068757;28;20056;-48
2023/03/24 00:36:33;;;;;;;18.92;8.18;;;;;;;11.28;100.00;99570.97;5068193;28;20020;-50
2023/03/24 00:38:59;;;;;;;22.30;7.45;;;;;;;11.32;100.00;99577.53;5069530;28;20034;-48
2023/03/24 00:41:25;;;;;;;20.08;7.32;;;;;;;11.34;100.00;99568.19;5078853;28;20536;-50
2023/03/24 00:43:53;;;;;;;22.65;7.68;;;;;;;11.35;100.00;99563.66;5084601;28;20036;-48
2023/03/24 00:46:28;;;;;;;;;;;;;;;11.35;100.00;99567.19;5082179;28;20029;-48
2023/03/24 00:49:05;;;;;;;20.35;6.40;;;;;;;11.35;100.00;99555.59;5086213;28;19923;-48
2023/03/24 00:51:38;;;;;;;14.60;6.15;;;;;;;11.38;100.00;99552.44;5069398;28;20078;-48
2023/03/24 00:54:04;;;;;;;22.52;7.43;;;;;;;11.41;100.00;99558.22;5081937;28;20035;-48
2023/03/24 00:56:31;;;;;;;17.83;6.97;;;;;;;11.41;100.00;99549.31;5067071;28;20460;-47
2023/03/24 00:58:56;;;;;;;21.08;6.68;;;;;;;11.37;100.00;99548.09;5067536;28;20029;-49
2023/03/24 01:01:26;;;;;;;17.92;7.05;;;;;;;11.32;100.00;99545.22;5077231;28;20032;-56
2023/03/24 01:03:52;;;;;;;18.02;6.45;;;;;;;11.33;100.00;99565.75;5085158;28;20028;-50
2023/03/24 01:06:17;;;;;;;15.52;6.10;;;;;;;11.33;100.00;99565.75;5068165;28;20556;-48
2023/03/24 01:08:44;;;;;;;20.38;6.55;;;;;;;11.33;100.00;99541.50;5069275;28;20328;-48
2023/03/24 01:11:11;;;;;;;26.10;6.85;;;;;;;11.30;100.00;99547.31;5075259;28;20357;-49
2023/03/24 01:13:37;;;;;;;16.65;6.90;;;;;;;11.25;100.00;99560.63;5069836;28;20488;-53
2023/03/24 01:16:03;;;;;;;20.45;7.32;;;;;;;11.16;100.00;99566.28;5071464;28;20079;-53
2023/03/24 01:18:28;;;;;;;24.13;7.20;;;;;;;11.09;100.00;99565.47;5070517;28;20340;-53
2023/03/24 01:20:54;;;;;;;24.70;6.85;;;;;;;11.08;100.00;99568.38;5073930;28;20032;-55
2023/03/24 01:23:24;;;;;;;23.17;7.00;;;;;;;11.05;100.00;99583.09;5071522;28;20028;-50
2023/03/24 01:25:50;;;;;;;23.00;7.93;;;;;;;11.07;100.00;99586.41;5071129;28;20056;-50
2023/03/24 01:28:23;;;;;;;14.48;6.35;;;;;;;11.10;100.00;99612.06;5072661;28;20025;-50
2023/03/24 01:30:49;;;;;;;13.18;5.78;;;;;;;11.18;100.00;99612.63;5073708;28;20117;-48
2023/03/24 01:33:15;;;;;;;20.65;6.40;;;;;;;11.20;100.00;99633.97;5070004;28;20016;-49
2023/03/24 01:35:40;;;;;;;16.25;4.50;;;;;;;11.16;100.00;99625.50;5071937;28;20095;-51
2023/03/24 01:38:07;;;;;;;25.60;6.28;;;;;;;11.11;100.00;99641.50;5072172;28;20029;-49
2023/03/24 01:40:34;;;;;;;27.10;6.05;;;;;;;10.96;100.00;99632.88;5071409;28;20182;-49
2023/03/24 01:43:00;;;;;;;23.33;4.73;;;;;;;10.67;100.00;99653.88;5066873;28;20032;-48
2023/03/24 01:45:38;;;;;;;23.85;4.03;;;;;;;10.61;100.00;99637.72;5090588;28;20381;-48
2023/03/24 01:48:04;;;;;;;;;;;;;;;10.55;100.00;99651.00;5087201;28;20093;-49
2023/03/24 01:50:30;;;;;;;24.98;3.58;;;;;;;10.44;100.00;99669.66;5091151;28;19923;-50
2023/03/24 01:52:55;;;;;;;25.08;3.67;;;;;;;10.31;100.00;99649.81;5091265;28;20024;-45
2023/03/24 01:55:22;;;;;;;23.60;2.60;;;;;;;10.19;100.00;99664.91;5079803;28;20499;-48
2023/03/24 01:57:54;;;;;;;23.50;2.83;;;;;;;10.13;100.00;99660.34;5071308;28;20032;-49
2023/03/24 02:00:20;;;;;;;27.90;3.40;;;;;;;10.07;100.00;99661.19;5071084;28;20032;-48
2023/03/24 02:02:57;;;;;;;26.35;3.10;;;;;;;9.98;100.00;99671.34;5073124;28;20115;-48
2023/03/24 02:05:26;;;;;;;25.92;3.13;;;;;;;9.96;100.00;99664.50;5072507;28;20021;-48
2023/03/24 02:08:03;;;;;;;30.88;2.80;;;;;;;9.95;100.00;99663.66;5069882;28;20029;-49
2023/03/24 02:10:30;;;;;;;15.63;2.67;;;;;;;9.93;100.00;99675.69;5070446;28;20107;-47
2023/03/24 02:12:56;;;;;;;16.50;2.15;;;;;;;9.88;100.00;99655.59;5077265;28;20286;-46
2023/03/24 02:15:22;;;;;;;10.35;2.15;;;;;;;9.86;100.00;99649.59;5072186;28;20032;-46
2023/03/24 02:18:17;;;;;;;19.00;2.42;;;;;;;9.85;100.00;99658.72;5072727;28;20561;-46
2023/03/24 02:20:48;;;;;;;28.20;2.88;;;;;;;9.82;100.00;99669.88;5071590;28;20042;-49
2023/03/24 02:23:42;;;;;;;25.77;2.58;;;;;;;9.81;100.00;99670.88;5076588;28;20138;-49
2023/03/24 02:26:27;;;;;;;26.95;2.88;;;;;;;9.80;100.00;99685.38;5071729;28;20047;-48
2023/03/24 02:28:58;;;;;;;32.13;3.03;;;;;;;9.72;100.00;99690.94;5071613;28;20135;-49
2023/03/24 02:31:29;;;;;;;32.55;3.78;;;;;;;9.68;100.00;99685.13;5079040;28;20024;-48
2023/03/24 02:34:13;;;;;;;31.63;3.03;;;;;;;9.62;100.00;99682.44;5069926;28;20016;-50
2023/03/24 02:36:50;;;;;;;27.92;3.45;;;;;;;9.57;100.00;99687.59;5071039;28;20032;-49
2023/03/24 02:39:36;;;;;;;26.30;3.03;;;;;;;9.55;100.00;99689.66;5069200;28;20071;-50
2023/03/24 02:42:08;;;;;;;29.90;3.55;;;;;;;9.47;100.00;99703.28;5071815;28;20029;-49
2023/03/24 02:44:51;;;;;;;28.00;2.97;;;;;;;9.38;100.00;99721.44;5072312;28;20177;-52
2023/03/24 02:47:35;;;;;;;30.02;3.38;;;;;;;9.28;100.00;99721.81;5071955;28;20419;-50
2023/03/24 02:50:12;;;;;;;32.80;2.60;;;;;;;9.24;100.00;99720.53;5071203;28;20115;-48
2023/03/24 02:52:52;;;;;;;25.60;3.23;;;;;;;9.17;100.00;99722.41;5067637;28;20056;-49
2023/03/24 02:55:24;;;;;;;30.33;4.00;;;;;;;9.11;100.00;99732.09;5081658;28;20293;-48
2023/03/24 02:57:55;;;;;;;40.72;4.60;;;;;;;9.07;100.00;99746.09;5088865;28;20020;-50
2023/03/24 03:00:27;;;;;;;38.58;3.17;;;;;;;9.04;100.00;99735.75;5083895;28;20063;-48
2023/03/24 03:02:58;;;;;;;60.20;4.53;;;;;;;9.00;100.00;99746.03;5052075;28;20486;-49
2023/03/24 03:05:35;;;;;;;46.05;6.18;;;;;;;8.97;100.00;99736.53;5084387;28;20035;-50
2023/03/24 03:08:03;;;;;;;48.42;3.78;;;;;;;8.91;100.00;99763.34;5089770;28;20379;-49
2023/03/24 03:10:40;;;;;;;52.30;3.88;;;;;;;8.84;100.00;99774.03;5088071;28;20026;-49
2023/03/24 03:13:15;;;;;;;47.55;3.92;;;;;;;8.84;100.00;99765.97;5075511;28;20035;-49
2023/03/24 03:15:43;;;;;;;32.80;4.50;;;;;;;8.86;100.00;99768.47;5083521;28;20084;-50
2023/03/24 03:18:09;;;;;;;;;;;;;;;8.89;100.00;99762.72;5088397;28;20066;-48
2023/03/24 03:20:38;;;;;;;32.38;3.70;;;;;;;8.89;100.00;99765.41;5090953;28;19908;-49
2023/03/24 03:23:09;;;;;;;26.85;3.50;;;;;;;8.87;100.00;99781.69;5073233;28;20028;-49
2023/03/24 03:25:41;;;;;;;28.98;4.30;;;;;;;8.89;100.00;99774.25;5075842;28;20472;-50
2023/03/24 03:28:07;;;;;;;48.33;3.85;;;;;;;8.91;100.00;99774.09;5072127;28;20028;-50
2023/03/24 03:30:36;;;;;;;31.17;3.50;;;;;;;8.92;100.00;99781.09;5070242;28;20024;-49
2023/03/24 03:33:08;;;;;;;37.88;3.85;;;;;;;8.92;100.00;99776.56;5070233;28;20031;-48
2023/03/24 03:36:25;;;;;;;34.30;3.97;;;;;;;8.92;100.00;99775.72;5071299;28;20055;-50
2023/03/24 03:39:05;;;;;;;52.20;5.28;;;;;;;8.85;100.00;99781.06;5049810;28;20040;-49
2023/03/24 03:41:31;;;;;;;48.53;4.85;;;;;;;8.86;100.00;99777.34;5068716;28;20661;-48
2023/03/24 03:43:56;;;;;;;47.78;4.50;;;;;;;8.83;100.00;99777.75;5069491;28;20075;-49
2023/03/24 03:46:22;;;;;;;61.83;4.65;;;;;;;8.82;100.00;99788.66;5075205;28;20117;-49
2023/03/24 03:48:47;;;;;;;55.25;4.18;;;;;;;8.81;100.00;99795.06;5068890;28;20028;-48
2023/03/24 03:51:13;;;;;;;45.80;4.10;;;;;;;8.77;100.00;99800.00;5090156;28;20032;-50
2023/03/24 03:53:57;;;;;;;51.80;5.22;;;;;;;8.75;100.00;99788.63;5069134;28;20519;-50
2023/03/24 03:56:26;;;;;;;47.03;4.85;;;;;;;8.69;100.00;99795.63;5057738;28;20340;-52
2023/03/24 03:58:52;;;;;;;52.80;4.30;;;;;;;8.70;100.00;99805.31;5050544;28;20032;-49
2023/03/24 04:01:20;;;;;;;55.30;5.05;;;;;;;8.71;100.00;99800.75;5069682;28;20032;-51
2023/03/24 04:04:04;;;;;;;64.20;4.07;;;;;;;8.68;100.00;99793.94;5101590;28;20028;-49
2023/03/24 04:06:49;;;;;;;48.60;4.78;;;;;;;8.66;100.00;99801.38;5057592;28;20102;-50
2023/03/24 04:09:32;;;;;;;57.72;4.43;;;;;;;8.65;100.00;99817.66;5073258;28;20425;-49
2023/03/24 04:12:23;;;;;;;64.25;6.15;;;;;;;8.60;100.00;99814.72;5068864;28;20060;-50
2023/03/24 04:15:07;;;;;;;58.92;5.03;;;;;;;8.55;100.00;99813.44;5077019;28;20013;-49
2023/03/24 04:18:00;;;;;;;45.83;3.90;;;;;;;8.54;100.00;99822.50;5076722;28;20028;-49
2023/03/24 04:20:45;;;;;;;51.33;4.63;;;;;;;8.51;100.00;99814.88;5081531;28;20027;-50
2023/03/24 04:23:26;;;;;;;58.75;4.50;;;;;;;8.46;100.00;99825.34;5082622;28;20115;-53
2023/03/24 04:26:10;;;;;;;56.50;4.97;;;;;;;8.44;100.00;99835.41;5075579;28;20069;-49
2023/03/24 04:29:12;;;;;;;61.72;6.70;;;;;;;8.45;100.00;99830.88;5080646;28;20125;-50
2023/03/24 04:31:48;;;;;;;63.05;7.50;;;;;;;8.43;100.00;99831.09;5060098;28;20399;-48
2023/03/24 04:34:24;;;;;;;45.90;4.20;;;;;;;8.42;100.00;99837.47;5071095;28;20028;-49
2023/03/24 04:37:02;;;;;;;61.22;5.40;;;;;;;8.43;100.00;99831.09;5073831;28;20059;-49
2023/03/24 04:39:28;;;;;;;;;;;;;;;8.41;100.00;99833.13;5075476;28;20024;-51
2023/03/24 04:41:56;;;;;;;63.92;6.13;;;;;;;8.40;100.00;99836.00;5072909;28;20004;-50
2023/03/24 04:44:23;;;;;;;57.78;5.18;;;;;;;8.39;100.00;99845.03;5073375;28;20055;-49
2023/03/24 04:46:55;;;;;;;64.07;5.75;;;;;;;8.40;100.00;99839.53;5070964;28;20113;-50
2023/03/24 04:49:24;;;;;;;56.45;5.28;;;;;;;8.42;100.00;99844.69;5071668;28;20024;-51
2023/03/24 04:51:50;;;;;;;73.55;7.07;;;;;;;8.42;100.00;99850.88;5074429;28;20051;-50
2023/03/24 04:54:16;;;;;;;83.53;5.70;;;;;;;8.43;100.00;99862.44;5089831;28;20023;-50
2023/03/24 04:56:49;;;;;;;69.22;6.25;;;;;;;8.46;100.00;99851.31;5094172;28;20344;-49
2023/03/24 04:59:15;;;;;;;74.38;6.60;;;;;;;8.47;100.00;99867.22;5079430;28;20287;-50
2023/03/24 05:01:48;;;;;;;80.72;5.75;;;;;;;8.48;100.00;99870.75;5071302;28;20064;-50
2023/03/24 05:04:18;;;;;;;65.22;5.65;;;;;;;8.49;100.00;99873.22;5072971;28;20017;-47
2023/03/24 05:06:45;;;;;;;81.05;6.88;;;;;;;8.52;100.00;99888.09;5072148;28;20380;-51
2023/03/24 05:09:12;;;;;;;81.60;6.10;;;;;;;8.53;100.00;99885.22;5079545;28;20105;-49
2023/03/24 05:11:37;;;;;;;76.75;5.15;;;;;;;8.56;100.00;99884.03;5073996;28;20041;-49
2023/03/24 05:14:03;;;;;;;82.38;7.95;;;;;;;8.56;100.00;99906.28;5078427;28;20148;-50
2023/03/24 05:16:28;;;;;;;76.60;6.93;;;;;;;8.57;100.00;99891.84;5074534;28;20073;-50
2023/03/24 05:18:53;;;;;;;66.05;5.80;;;;;;;8.60;100.00;99896.00;5072725;28;20028;-49
2023/03/24 05:21:19;;;;;;;75.65;6.90;;;;;;;8.61;100.00;99896.81;5073492;28;20111;-49
2023/03/24 05:23:44;;;;;;;89.90;7.72;;;;;;;8.65;100.00;99892.75;5072528;28;20075;-49
2023/03/24 05:26:10;;;;;;;59.15;7.13;;;;;;;8.67;100.00;99904.13;5080572;28;20043;-50
2023/03/24 05:28:35;;;;;;;70.95;7.68;;;;;;;8.68;100.00;99897.72;5073800;28;20089;-52
2023/03/24 05:31:01;;;;;;;66.10;7.03;;;;;;;8.69;100.00;99899.38;5074358;28;20044;-52
2023/03/24 05:33:26;;;;;;;72.55;6.22;;;;;;;8.70;100.00;99895.69;5073014;28;20111;-51
2023/03/24 05:35:51;;;;;;;69.18;6.47;;;;;;;8.68;100.00;99893.19;5072003;28;20028;-51
2023/03/24 05:38:17;;;;;;;62.42;7.28;;;;;;;8.68;100.00;99897.72;5071145;28;20024;-50
2023/03/24 05:40:42;;;;;;;72.03;5.82;;;;;;;8.67;100.00;99907.63;5072478;28;20752;-51
2023/03/24 05:43:08;;;;;;;59.08;5.95;;;;;;;8.67;100.00;99896.06;5072867;28;20025;-51
2023/03/24 05:45:34;;;;;;;77.53;6.65;;;;;;;8.69;100.00;99910.09;5070500;28;20052;-50
2023/03/24 05:47:59;;;;;;;83.63;5.72;;;;;;;8.72;100.00;99904.38;5091329;28;20128;-50
2023/03/24 05:50:25;;;;;;;72.22;5.03;;;;;;;8.71;100.00;99913.44;5066285;28;20421;-50
2023/03/24 05:52:51;;;;;;;65.97;5.97;;;;;;;8.72;100.00;99925.84;5051763;28;20025;-49
2023/03/24 05:55:18;;;;;;;56.40;5.45;;;;;;;8.73;100.00;99927.50;5065765;28;20486;-50
2023/03/24 05:57:43;;;;;;;54.30;5.53;;;;;;;8.74;100.00;99923.78;5084604;28;20126;-49
2023/03/24 06:00:15;;;;;;;84.03;8.02;;;;;;;8.76;100.00;99917.19;5082304;28;20160;-49
2023/03/24 06:02:41;;;;;;;83.53;6.70;;;;;;;8.76;100.00;99922.56;5092732;28;20107;-49
2023/03/24 06:05:08;;;;;;;72.13;4.60;;;;;;;8.76;100.00;99921.72;5078445;28;20043;-50
2023/03/24 06:07:35;;;;;;;86.00;7.07;;;;;;;8.78;100.00;99931.25;5072137;28;20025;-49
2023/03/24 06:10:03;;;;;;;80.88;5.57;;;;;;;8.79;100.00;99935.63;5071744;28;20412;-50
2023/03/24 06:12:29;;;;;;;65.90;7.05;;;;;;;8.78;100.00;99933.94;5070776;28;20032;-48
2023/03/24 06:14:55;;;;;;;71.50;6.10;;;;;;;8.81;100.00;99937.25;5069394;28;20055;-51
2023/03/24 06:17:23;;;;;;;69.53;5.88;;;;;;;8.80;100.00;99936.44;5073026;28;20048;-49
2023/03/24 06:19:49;;;;;;;79.18;5.50;;;;;;;8.82;100.00;99920.13;5069678;28;20032;-50
2023/03/24 06:22:19;;;;;;;69.63;6.47;;;;;;;8.81;100.00;99937.25;5070669;28;20032;-50
2023/03/24 06:24:45;;;;;;;60.30;4.93;;;;;;;8.80;100.00;99955.22;5077332;28;20486;-50
2023/03/24 06:27:13;;;;;;;73.88;6.28;;;;;;;8.82;100.00;99958.53;5082084;28;20498;-50
2023/03/24 06:29:41;;;;;;;73.80;8.40;;;;;;;8.85;100.00;99955.47;5084729;28;20107;-48
2023/03/24 06:32:06;;;;;;;;;;;;;;;8.83;100.00;99948.63;5072195;28;20463;-50
2023/03/24 06:34:32;;;;;;;75.13;7.95;;;;;;;8.84;100.00;99961.84;5074245;28;19971;-51
2023/03/24 06:36:57;;;;;;;90.60;6.40;;;;;;;8.87;100.00;99956.09;5082540;28;20089;-49
2023/03/24 06:39:22;;;;;;;68.55;6.03;;;;;;;8.90;100.00;99953.03;5070838;28;20060;-50
2023/03/24 06:41:48;;;;;;;68.10;5.70;;;;;;;8.92;100.00;99963.56;5091086;28;20053;-48
2023/03/24 06:44:13;;;;;;;72.35;5.47;;;;;;;8.92;100.00;99964.41;5089979;28;20031;-50
2023/03/24 06:46:39;;;;;;;66.90;8.48;;;;;;;8.92;100.00;99969.75;5085787;28;20044;-50
2023/03/24 06:49:04;;;;;;;50.13;4.75;;;;;;;8.98;100.00;99969.00;5070592;28;20460;-50
2023/03/24 06:51:30;;;;;;;90.78;6.75;;;;;;;9.02;100.00;99975.63;5073181;28;20036;-48
2023/03/24 06:53:55;;;;;;;64.13;6.22;;;;;;;9.08;100.00;99981.25;5082585;28;20416;-50
2023/03/24 06:56:20;;;;;;;72.38;6.97;;;;;;;9.13;100.00;99981.50;5076820;28;20149;-50
2023/03/24 06:58:46;;;;;;;63.72;5.70;;;;;;;9.17;100.00;99982.78;5073591;28;20033;-50
2023/03/24 07:01:13;;;;;;;75.30;7.60;;;;;;;9.37;100.00;99982.94;5071501;28;20047;-50
2023/03/24 07:03:40;;;;;;;60.53;5.18;;;;;;;9.34;100.00;99991.38;5071467;28;20036;-49
2023/03/24 07:06:06;;;;;;;56.92;5.53;;;;;;;9.36;100.00;99990.16;5081041;28;20073;-50
2023/03/24 07:08:32;;;;;;;71.32;6.50;;;;;;;9.29;100.00;99996.50;5076025;28;20036;-49
2023/03/24 07:10:58;;;;;;;62.08;6.68;;;;;;;9.38;100.00;100003.41;5071374;28;20036;-53
2023/03/24 07:13:23;;;;;;;71.00;5.90;;;;;;;9.62;100.00;100002.13;5071474;28;20024;-49
2023/03/24 07:15:49;;;;;;;73.82;6.85;;;;;;;9.61;100.00;100000.47;5070892;28;20020;-53
2023/03/24 07:18:14;;;;;;;49.78;4.95;;;;;;;9.51;100.00;100005.38;5070002;28;20104;-50
2023/03/24 07:20:40;;;;;;;71.55;5.18;;;;;;;9.52;100.00;99989.03;5071020;28;20364;-50
2023/03/24 07:23:05;;;;;;;76.43;5.85;;;;;;;9.52;100.00;100007.03;5070831;28;20067;-49
2023/03/24 07:25:31;;;;;;;71.63;5.20;;;;;;;9.52;100.00;99998.97;5070993;28;20112;-48
2023/03/24 07:27:57;;;;;;;53.08;6.07;;;;;;;9.64;100.00;100018.91;5070432;28;20437;-50
2023/03/24 07:30:23;;;;;;;56.72;5.05;;;;;;;9.77;100.00;100010.94;5070663;28;20056;-50
2023/03/24 07:32:49;;;;;;;60.50;5.05;;;;;;;9.83;100.00;100014.69;5070227;28;20449;-51
2023/03/24 07:35:15;;;;;;;57.15;6.15;;;;;;;9.80;100.00;100021.28;5069994;28;20059;-52
2023/03/24 07:37:41;;;;;;;52.17;4.25;;;;;;;9.66;100.00;100008.75;5069857;28;20035;-49
2023/03/24 07:40:10;;;;;;;54.58;4.25;;;;;;;9.57;100.00;100020.69;5069790;28;20012;-47
2023/03/24 07:42:37;;;;;;;63.97;4.25;;;;;;;9.57;100.00;100020.69;5067101;28;20340;-49
2023/03/24 07:45:04;;;;;;;51.00;4.25;;;;;;;9.62;100.00;100029.81;5068192;28;20059;-52
2023/03/24 07:47:30;;;;;;;64.18;5.32;;;;;;;9.61;100.00;100025.50;5067131;28;20428;-50
2023/03/24 07:49:55;;;;;;;50.53;5.07;;;;;;;9.67;100.00;100022.00;5070307;28;20047;-50
2023/03/24 07:52:21;;;;;;;55.63;5.28;;;;;;;9.74;100.00;100024.75;5069966;28;20540;-49
2023/03/24 07:54:46;;;;;;;45.42;4.20;;;;;;;9.91;100.00;100022.56;5069754;28;20017;-48
2023/03/24 07:57:11;;;;;;;46.85;4.07;;;;;;;9.91;100.00;100022.56;5069720;28;20024;-50
2023/03/24 07:59:37;;;;;;;51.38;4.85;;;;;;;9.85;100.00;100018.81;5070086;28;20096;-50
2023/03/24 08:02:03;;;;;;;50.28;5.57;;;;;;;9.82;100.00;100008.47;5069872;28;20036;-51
2023/03/24 08:04:28;;;;;;;53.30;5.45;;;;;;;9.74;100.00;100011.31;5067587;28;20025;-50
2023/03/24 08:06:53;;;;;;;49.60;5.25;;;;;;;9.74;100.00;100035.50;5069331;28;20029;-49
2023/03/24 08:09:19;;;;;;;34.50;3.88;;;;;;;9.77;100.00;100035.09;5069939;28;20028;-50
2023/03/24 08:11:45;;;;;;;60.30;4.55;;;;;;;9.79;100.00;100034.91;5067949;28;20028;-49
2023/03/24 08:14:10;;;;;;;59.60;4.20;;;;;;;9.97;100.00;100031.69;5068958;28;20426;-49
2023/03/24 08:16:37;;;;;;;45.53;4.13;;;;;;;10.10;100.00;100029.91;5070348;28;20028;-50
2023/03/24 08:19:03;;;;;;;59.08;3.97;;;;;;;10.17;100.00;100029.97;5070740;28;20041;-49
2023/03/24 08:21:28;;;;;;;34.80;3.95;;;;;;;10.25;100.00;100032.47;5068143;28;20033;-51
2023/03/24 08:23:54;;;;;;;52.65;3.95;;;;;;;10.06;100.00;100043.97;5069717;28;20027;-51
2023/03/24 08:26:21;;;;;;;52.75;4.32;;;;;;;10.03;100.00;100063.16;5069976;28;20020;-49
2023/03/24 08:28:46;;;;;;;50.55;5.05;;;;;;;9.91;100.00;100059.38;5069835;28;20025;-52
2023/03/24 08:31:12;;;;;;;61.05;5.55;;;;;;;9.97;100.00;100059.41;5070183;28;20436;-51
2023/03/24 08:33:37;;;;;;;43.38;4.68;;;;;;;9.99;100.00;100061.91;5070252;28;20031;-49
2023/03/24 08:36:03;;;;;;;52.22;5.45;;;;;;;10.01;100.00;100054.50;5070594;28;20087;-49
2023/03/24 08:38:31;;;;;;;42.20;3.70;;;;;;;10.06;100.00;100078.94;5069635;28;20028;-48
2023/03/24 08:41:05;;;;;;;46.63;4.22;;;;;;;10.00;100.00;100055.50;5070210;28;20375;-49
2023/03/24 08:43:32;;;;;;;52.03;4.05;;;;;;;9.97;100.00;100066.66;5070323;28;20056;-49
2023/03/24 08:45:59;;;;;;;39.78;3.15;;;;;;;9.91;100.00;100049.44;5068246;28;20032;-49
2023/03/24 08:48:25;;;;;;;40.15;3.88;;;;;;;10.05;100.00;100071.88;5067831;28;20049;-48
2023/03/24 08:50:52;;;;;;;48.92;3.88;;;;;;;10.04;100.00;100071.03;5070656;28;20036;-48
2023/03/24 08:53:17;;;;;;;49.33;4.32;;;;;;;9.97;100.00;100080.91;5070078;28;20090;-48
2023/03/24 08:55:43;;;;;;;54.88;5.45;;;;;;;9.91;100.00;100070.13;5070242;28;20367;-49
2023/03/24 08:58:19;;;;;;;45.67;4.15;;;;;;;9.86;100.00;100065.34;5069254;28;20055;-51
2023/03/24 09:00:46;;;;;;;57.55;5.47;;;;;;;9.82;100.00;100081.03;5069127;28;20157;-49
2023/03/24 09:03:16;;;;;;;48.40;4.07;;;;;;;9.83;100.00;100077.31;5070131;28;20025;-49
2023/03/24 09:05:42;;;;;;;76.38;6.32;;;;;;;10.10;100.00;100077.47;5070752;28;20103;-48
2023/03/24 09:08:08;;;;;;;57.20;4.68;;;;;;;10.45;100.00;100090.94;5065715;28;20166;-48
2023/03/24 09:10:33;;;;;;;54.92;5.63;;;;;;;11.08;100.00;100083.50;5069947;28;20025;-48
2023/03/24 09:12:59;;;;;;;53.25;4.78;;;;;;;11.59;100.00;100085.66;5069826;28;20135;-49
2023/03/24 09:15:24;;;;;;;51.13;4.45;;;;;;;11.74;100.00;100081.91;5070132;28;20070;-50
2023/03/24 09:17:50;;;;;;;49.50;5.03;;;;;;;11.39;100.00;100090.19;5070136;28;20168;-48
2023/03/24 09:20:16;;;;;;;73.60;5.72;;;;;;;11.19;100.00;100082.09;5069532;28;20460;-49
2023/03/24 09:22:43;;;;;;;49.38;5.22;;;;;;;11.33;100.00;100085.63;5069385;28;20033;-48
2023/03/24 09:25:10;;;;;;;50.13;5.53;;;;;;;11.42;100.00;100095.16;5068536;28;20467;-48
2023/03/24 09:27:35;;;;;;;61.40;4.68;;;;;;;11.49;100.00;100096.00;5065499;28;20422;-48
2023/03/24 09:30:01;;;;;;;55.55;4.88;;;;;;;11.58;100.00;100086.66;5067261;28;20024;-48
2023/03/24 09:32:26;;;;;;;59.75;5.45;;;;;;;11.46;100.00;100085.66;5069162;28;20031;-49
2023/03/24 09:34:51;;;;;;;46.40;4.68;;;;;;;11.81;100.00;100082.75;5069641;28;20356;-49
2023/03/24 09:37:17;;;;;;;51.25;4.82;;;;;;;12.29;100.00;100077.06;5070142;28;20021;-48
2023/03/24 09:39:42;;;;;;;49.40;4.45;;;;;;;12.29;100.00;100087.88;5069925;28;20055;-49
2023/03/24 09:42:14;;;;;;;62.90;5.38;;;;;;;12.52;100.00;100084.69;5073922;28;20395;-49
2023/03/24 09:44:43;;;;;;;37.83;4.80;;;;;;;12.40;100.00;100105.28;5071488;28;20025;-48
2023/03/24 09:47:37;;;;;;;50.60;5.88;;;;;;;12.53;100.00;100075.53;5070904;28;20070;-49
2023/03/24 09:50:11;;;;;;;75.57;4.90;;;;;;;12.64;100.00;100083.00;5069774;28;20380;-49
2023/03/24 09:52:41;;;;;;;55.25;5.45;;;;;;;12.28;100.00;100088.91;5069222;28;20035;-50
2023/03/24 09:55:13;;;;;;;46.10;5.40;;;;;;;12.20;100.00;100091.84;5071906;28;20031;-48
2023/03/24 09:57:43;;;;;;;39.40;3.95;;;;;;;12.01;100.00;100090.84;5076517;28;20640;-48
2023/03/24 10:00:25;;;;;;;51.20;4.85;;;;;;;11.70;100.00;100091.47;5091480;28;20035;-48
2023/03/24 10:02:51;;;;;;;57.95;5.45;;;;;;;11.61;100.00;100099.75;5091510;28;20533;-48
2023/03/24 10:06:06;;;;;;;49.90;5.10;;;;;;;11.59;100.00;100091.03;5092510;28;20032;-48
2023/03/24 10:08:36;;;;;;;40.88;4.18;;;;;;;11.42;100.00;100097.84;5065422;28;20032;-49
2023/03/24 10:11:20;;;;;;;45.75;4.75;;;;;;;11.26;100.00;100115.25;5091096;28;20463;-48
2023/03/24 10:14:04;;;;;;;36.70;4.35;;;;;;;11.19;100.00;100107.16;5092368;28;20124;-49
2023/03/24 10:16:53;;;;;;;48.78;4.32;;;;;;;11.09;100.00;100122.88;5092593;28;20347;-49
2023/03/24 10:19:35;;;;;;;35.45;3.88;;;;;;;10.93;100.00;100117.88;5092455;28;20032;-49
2023/03/24 10:22:04;;;;;;;41.58;4.47;;;;;;;10.75;100.00;100143.47;5091094;28;20032;-50
2023/03/24 10:24:43;;;;;;;60.88;5.93;;;;;;;10.81;100.00;100136.44;5092146;28;20484;-49
2023/03/24 10:27:20;;;;;;;52.92;4.22;;;;;;;10.89;100.00;100133.56;5090881;28;20030;-48
2023/03/24 10:29:46;;;;;;;47.27;4.10;;;;;;;11.39;100.00;100112.56;5088013;28;20024;-50
2023/03/24 10:32:21;;;;;;;54.65;5.05;;;;;;;11.88;100.00;100124.03;5070208;28;20491;-51
2023/03/24 10:34:51;;;;;;;49.97;5.15;;;;;;;11.97;100.00;100097.69;5070303;28;20115;-49
2023/03/24 10:37:16;;;;;;;55.40;5.88;;;;;;;12.24;100.00;100109.25;5070524;28;20063;-49
2023/03/24 10:39:42;;;;;;;44.00;4.07;;;;;;;12.31;100.00;100104.69;5071876;28;20108;-49
2023/03/24 10:42:14;;;;;;;42.28;5.03;;;;;;;12.15;100.00;100105.97;5071873;28;20387;-48
2023/03/24 10:44:40;;;;;;;47.50;4.28;;;;;;;12.00;100.00;100100.78;5070101;28;20034;-49
2023/03/24 10:47:07;;;;;;;48.67;4.05;;;;;;;11.80;100.00;100106.19;5071452;28;20053;-49
2023/03/24 10:49:33;;;;;;;50.22;4.85;;;;;;;11.55;100.00;100108.66;5069871;28;20376;-49
2023/03/24 10:52:08;;;;;;;63.50;4.60;;;;;;;11.74;100.00;100108.84;5071338;28;20031;-50
2023/03/24 10:54:33;;;;;;;52.80;6.00;;;;;;;11.83;100.00;100092.28;5071557;28;20040;-49
2023/03/24 10:57:05;;;;;;;37.28;3.90;;;;;;;11.83;100.00;100096.84;5070447;28;20028;-48
2023/03/24 10:59:31;;;;;;;44.25;3.67;;;;;;;11.87;100.00;100100.78;5071472;28;20094;-50
2023/03/24 11:02:08;;;;;;;46.08;4.07;;;;;;;11.98;100.00;100105.59;5071333;28;20029;-49
2023/03/24 11:04:37;;;;;;;43.25;3.97;;;;;;;12.24;100.00;100117.34;5071212;28;20030;-49
2023/03/24 11:07:15;;;;;;;55.67;3.88;;;;;;;12.06;100.00;100097.28;5070673;28;20031;-48
2023/03/24 11:09:42;;;;;;;43.00;3.25;;;;;;;12.07;100.00;100098.09;5070989;28;20422;-49
2023/03/24 11:12:25;;;;;;;39.73;3.67;;;;;;;12.14;100.00;100106.16;5070691;28;20115;-48
2023/03/24 11:14:56;;;;;;;47.63;4.55;;;;;;;11.59;100.00;100112.59;5070053;28;20135;-51
2023/03/24 11:17:22;;;;;;;34.92;3.67;;;;;;;11.86;100.00;100099.16;5072115;28;20043;-49
2023/03/24 11:19:56;;;;;;;38.88;3.33;;;;;;;12.17;100.00;100100.38;5070824;28;20365;-49
2023/03/24 11:22:22;;;;;;;53.17;4.32;;;;;;;12.57;100.00;100105.66;5070428;28;20028;-50
2023/03/24 11:24:54;;;;;;;33.85;2.88;;;;;;;12.45;100.00;100116.25;5070854;28;20451;-49
2023/03/24 11:27:20;;;;;;;28.85;2.75;;;;;;;12.43;100.00;100107.56;5069744;28;20048;-49
2023/03/24 11:29:53;;;;;;;30.45;3.25;;;;;;;12.75;100.00;100103.09;5070546;28;20492;-48
2023/03/24 11:32:28;;;;;;;32.28;3.05;;;;;;;12.58;100.00;100139.69;5069786;28;20557;-49